Miami International Airport
KMIA : rendu visible

Aérodrome :











RETROUVEZ-NOUS SUR...

 
LOGIN :

S'inscrire | Disclaimer

   EN    FR    IT 

 









Légende :    VFR   VFR Marginal   IFR   IFR Intensif   IFR Très Intensif
Visi : 
Plafond : 
>= 8 km
>= 3000ft
5 à 8 km
1000 à 3000 ft
1500m à 5 km
500 à 1000 ft
800 à 1500m
200 à 500 ft
< 800m
< 200 ft
Symboles :   Orages  Brouillard  Fortes neiges  Fortes précipitations  Vent > 20 kt






- Altitude de l'aérodrome : 8 ft
- Code IATA : MIA


KMIA - Miami International

DERNIER METAR :
  • 100753Z 11006KT 10SM FEW020 FEW065 24/21 A3008 RMK AO2 SLP186 T02390211

METARs EXPIRÉS :
  • 100653Z 11007KT 10SM FEW020 SCT065 24/21 A3009 RMK AO2 SLP189 T02440211
  • 100553Z 11007KT 10SM SCT020 BKN065 24/21 A3010 RMK AO2 SLP192 60001 T02440211 10250 20244 58005

TAF KMIA
Valide du 10 à 06h jusqu'au 11 à 12h UTC


100532Z 1006/1112 11005KT P6SM FEW025 SCT250
FM101500 13012KT P6SM SCT035 SCT060
FM110000 13005KT P6SM FEW025 SCT250



MET'MAP, la Météo Aéronautique d'un coup d'oeil ! - Copyright ORBIFLY Décembre 2007 - Disclaimer

ORBIFLY MET'MAP TEAM :

Programmation & Développement : Alexandra Zaïnal
Sur une idée originale de : Baudouin d'Aumeries
Assistance à la programmation : Marc-Olivier Méhu
Soutien technique & logistique : Manuel Goepfert

Contact : metmap@orbifly.com




SOURCES & CREDITS :

   NOAA       Earth
Advisory